sensor_id;sensor_type;location;lat;lon;timestamp;temperature;humidity
13211;DHT22;6670;51.53087800;7.23266500;2023-07-20T00:01:19;18.10;99.90
13211;DHT22;6670;51.53087800;7.23266500;2023-07-20T00:03:46;18.10;99.90
13211;DHT22;6670;51.53087800;7.23266500;2023-07-20T00:06:20;18.10;99.90
13211;DHT22;6670;51.53087800;7.23266500;2023-07-20T00:08:48;18.20;99.90
13211;DHT22;6670;51.53087800;7.23266500;2023-07-20T00:11:17;18.20;99.90
13211;DHT22;6670;51.53087800;7.23266500;2023-07-20T00:13:44;18.20;99.90
13211;DHT22;6670;51.53087800;7.23266500;2023-07-20T00:16:12;18.20;99.90
13211;DHT22;6670;51.53087800;7.23266500;2023-07-20T00:18:39;18.30;99.90
13211;DHT22;6670;51.53087800;7.23266500;2023-07-20T00:21:07;18.20;99.90
13211;DHT22;6670;51.53087800;7.23266500;2023-07-20T00:23:34;18.20;99.90
13211;DHT22;6670;51.53087800;7.23266500;2023-07-20T00:26:01;18.20;99.90
13211;DHT22;6670;51.53087800;7.23266500;2023-07-20T00:28:30;18.20;99.90
13211;DHT22;6670;51.53087800;7.23266500;2023-07-20T00:30:59;18.40;99.90
13211;DHT22;6670;51.53087800;7.23266500;2023-07-20T00:33:26;18.40;99.90
13211;DHT22;6670;51.53087800;7.23266500;2023-07-20T00:35:54;18.40;99.90
13211;DHT22;6670;51.53087800;7.23266500;2023-07-20T00:38:21;18.30;99.90
13211;DHT22;6670;51.53087800;7.23266500;2023-07-20T00:40:49;18.20;99.90
13211;DHT22;6670;51.53087800;7.23266500;2023-07-20T00:43:17;18.30;99.90
13211;DHT22;6670;51.53087800;7.23266500;2023-07-20T00:45:47;18.40;99.90
13211;DHT22;6670;51.53087800;7.23266500;2023-07-20T00:48:14;18.50;99.90
13211;DHT22;6670;51.53087800;7.23266500;2023-07-20T00:50:43;18.60;99.90
13211;DHT22;6670;51.53087800;7.23266500;2023-07-20T00:53:11;18.60;99.90
13211;DHT22;6670;51.53087800;7.23266500;2023-07-20T00:55:38;18.40;99.90
13211;DHT22;6670;51.53087800;7.23266500;2023-07-20T00:58:07;18.40;99.90
13211;DHT22;6670;51.53087800;7.23266500;2023-07-20T01:00:35;18.30;99.90
13211;DHT22;6670;51.53087800;7.23266500;2023-07-20T01:03:04;18.20;99.90
13211;DHT22;6670;51.53087800;7.23266500;2023-07-20T01:05:38;18.30;99.90
13211;DHT22;6670;51.53087800;7.23266500;2023-07-20T01:08:14;18.40;99.90
13211;DHT22;6670;51.53087800;7.23266500;2023-07-20T01:10:46;18.40;99.90
13211;DHT22;6670;51.53087800;7.23266500;2023-07-20T01:13:17;18.50;99.90
13211;DHT22;6670;51.53087800;7.23266500;2023-07-20T01:15:49;18.30;99.90
13211;DHT22;6670;51.53087800;7.23266500;2023-07-20T01:18:18;18.30;99.90
13211;DHT22;6670;51.53087800;7.23266500;2023-07-20T01:20:45;18.20;99.90
13211;DHT22;6670;51.53087800;7.23266500;2023-07-20T01:23:27;18.30;99.90
13211;DHT22;6670;51.53087800;7.23266500;2023-07-20T01:26:24;18.10;99.90
13211;DHT22;6670;51.53087800;7.23266500;2023-07-20T01:29:11;18.10;99.90
13211;DHT22;6670;51.53087800;7.23266500;2023-07-20T01:31:46;18.20;99.90
13211;DHT22;6670;51.53087800;7.23266500;2023-07-20T01:34:16;18.10;99.90
13211;DHT22;6670;51.53087800;7.23266500;2023-07-20T01:36:45;18.00;99.90
13211;DHT22;6670;51.53087800;7.23266500;2023-07-20T01:39:13;18.20;99.90
13211;DHT22;6670;51.53087800;7.23266500;2023-07-20T01:41:40;18.30;99.90
13211;DHT22;6670;51.53087800;7.23266500;2023-07-20T01:44:08;18.30;99.90
13211;DHT22;6670;51.53087800;7.23266500;2023-07-20T01:46:37;18.30;99.90
13211;DHT22;6670;51.53087800;7.23266500;2023-07-20T01:49:06;18.10;99.90
13211;DHT22;6670;51.53087800;7.23266500;2023-07-20T01:51:33;17.90;99.90
13211;DHT22;6670;51.53087800;7.23266500;2023-07-20T01:54:01;17.70;99.90
13211;DHT22;6670;51.53087800;7.23266500;2023-07-20T01:56:28;17.50;99.90
13211;DHT22;6670;51.53087800;7.23266500;2023-07-20T01:58:56;17.70;99.90
13211;DHT22;6670;51.53087800;7.23266500;2023-07-20T02:01:23;17.80;99.90
13211;DHT22;6670;51.53087800;7.23266500;2023-07-20T02:03:50;17.60;99.90
13211;DHT22;6670;51.53087800;7.23266500;2023-07-20T02:06:19;17.70;99.90
13211;DHT22;6670;51.53087800;7.23266500;2023-07-20T02:08:56;17.70;99.90
13211;DHT22;6670;51.53087800;7.23266500;2023-07-20T02:11:23;17.80;99.90
13211;DHT22;6670;51.53087800;7.23266500;2023-07-20T02:13:51;17.70;99.90
13211;DHT22;6670;51.53087800;7.23266500;2023-07-20T02:16:18;17.60;99.90
13211;DHT22;6670;51.53087800;7.23266500;2023-07-20T02:18:47;17.60;99.90
13211;DHT22;6670;51.53087800;7.23266500;2023-07-20T02:21:14;17.60;99.90
13211;DHT22;6670;51.53087800;7.23266500;2023-07-20T02:23:43;17.70;99.90
13211;DHT22;6670;51.53087800;7.23266500;2023-07-20T02:26:10;17.60;99.90
13211;DHT22;6670;51.53087800;7.23266500;2023-07-20T02:28:38;17.50;99.90
13211;DHT22;6670;51.53087800;7.23266500;2023-07-20T02:31:05;17.40;99.90
13211;DHT22;6670;51.53087800;7.23266500;2023-07-20T02:33:35;17.30;99.90
13211;DHT22;6670;51.53087800;7.23266500;2023-07-20T02:36:02;17.20;99.90
13211;DHT22;6670;51.53087800;7.23266500;2023-07-20T02:38:30;17.40;99.90
13211;DHT22;6670;51.53087800;7.23266500;2023-07-20T02:40:59;17.40;99.90
13211;DHT22;6670;51.53087800;7.23266500;2023-07-20T02:43:26;17.40;99.90
13211;DHT22;6670;51.53087800;7.23266500;2023-07-20T02:45:54;17.30;99.90
13211;DHT22;6670;51.53087800;7.23266500;2023-07-20T02:48:22;17.10;99.90
13211;DHT22;6670;51.53087800;7.23266500;2023-07-20T02:50:49;17.20;99.90
13211;DHT22;6670;51.53087800;7.23266500;2023-07-20T02:53:17;17.30;99.90
13211;DHT22;6670;51.53087800;7.23266500;2023-07-20T02:55:44;17.20;99.90
13211;DHT22;6670;51.53087800;7.23266500;2023-07-20T02:58:13;17.20;99.90
13211;DHT22;6670;51.53087800;7.23266500;2023-07-20T03:00:42;17.20;99.90
13211;DHT22;6670;51.53087800;7.23266500;2023-07-20T03:03:10;17.00;99.90
13211;DHT22;6670;51.53087800;7.23266500;2023-07-20T03:05:40;17.00;99.90
13211;DHT22;6670;51.53087800;7.23266500;2023-07-20T03:08:08;16.80;99.90
13211;DHT22;6670;51.53087800;7.23266500;2023-07-20T03:10:39;16.90;99.90
13211;DHT22;6670;51.53087800;7.23266500;2023-07-20T03:13:06;17.00;99.90
13211;DHT22;6670;51.53087800;7.23266500;2023-07-20T03:15:35;17.00;99.90
13211;DHT22;6670;51.53087800;7.23266500;2023-07-20T03:18:03;17.00;99.90
13211;DHT22;6670;51.53087800;7.23266500;2023-07-20T03:20:31;17.10;99.90
13211;DHT22;6670;51.53087800;7.23266500;2023-07-20T03:22:59;17.00;99.90
13211;DHT22;6670;51.53087800;7.23266500;2023-07-20T03:25:26;17.00;99.90
13211;DHT22;6670;51.53087800;7.23266500;2023-07-20T03:27:54;16.90;99.90
13211;DHT22;6670;51.53087800;7.23266500;2023-07-20T03:30:21;17.00;99.90
13211;DHT22;6670;51.53087800;7.23266500;2023-07-20T03:32:50;16.90;99.90
13211;DHT22;6670;51.53087800;7.23266500;2023-07-20T03:35:18;17.00;99.90
13211;DHT22;6670;51.53087800;7.23266500;2023-07-20T03:37:45;17.00;99.90
13211;DHT22;6670;51.53087800;7.23266500;2023-07-20T03:40:13;17.10;99.90
13211;DHT22;6670;51.53087800;7.23266500;2023-07-20T03:42:42;17.20;99.90
13211;DHT22;6670;51.53087800;7.23266500;2023-07-20T03:45:10;17.30;99.90
13211;DHT22;6670;51.53087800;7.23266500;2023-07-20T03:47:37;17.40;99.90
13211;DHT22;6670;51.53087800;7.23266500;2023-07-20T03:50:08;17.40;99.90
13211;DHT22;6670;51.53087800;7.23266500;2023-07-20T03:52:36;17.20;99.90
13211;DHT22;6670;51.53087800;7.23266500;2023-07-20T03:55:05;17.30;99.90
13211;DHT22;6670;51.53087800;7.23266500;2023-07-20T03:57:32;17.30;99.90
13211;DHT22;6670;51.53087800;7.23266500;2023-07-20T04:00:00;17.40;99.90
13211;DHT22;6670;51.53087800;7.23266500;2023-07-20T04:02:27;17.30;99.90
13211;DHT22;6670;51.53087800;7.23266500;2023-07-20T04:04:55;17.30;99.90
13211;DHT22;6670;51.53087800;7.23266500;2023-07-20T04:07:23;17.30;99.90
13211;DHT22;6670;51.53087800;7.23266500;2023-07-20T04:09:51;17.10;99.90
13211;DHT22;6670;51.53087800;7.23266500;2023-07-20T04:12:18;17.00;99.90
13211;DHT22;6670;51.53087800;7.23266500;2023-07-20T04:14:46;17.00;99.90
13211;DHT22;6670;51.53087800;7.23266500;2023-07-20T04:17:13;17.10;99.90
13211;DHT22;6670;51.53087800;7.23266500;2023-07-20T04:19:40;17.10;99.90
13211;DHT22;6670;51.53087800;7.23266500;2023-07-20T04:22:08;17.10;99.90
13211;DHT22;6670;51.53087800;7.23266500;2023-07-20T04:24:37;17.00;99.90
13211;DHT22;6670;51.53087800;7.23266500;2023-07-20T04:27:05;17.10;99.90
13211;DHT22;6670;51.53087800;7.23266500;2023-07-20T04:29:32;17.10;99.90
13211;DHT22;6670;51.53087800;7.23266500;2023-07-20T04:32:00;17.10;99.90
13211;DHT22;6670;51.53087800;7.23266500;2023-07-20T04:34:27;17.10;99.90
13211;DHT22;6670;51.53087800;7.23266500;2023-07-20T04:36:55;17.00;99.90
13211;DHT22;6670;51.53087800;7.23266500;2023-07-20T04:39:24;17.00;99.90
13211;DHT22;6670;51.53087800;7.23266500;2023-07-20T04:42:03;17.10;99.90
13211;DHT22;6670;51.53087800;7.23266500;2023-07-20T04:44:30;17.20;99.90
13211;DHT22;6670;51.53087800;7.23266500;2023-07-20T04:46:58;17.20;99.90
13211;DHT22;6670;51.53087800;7.23266500;2023-07-20T04:49:26;17.20;99.90
13211;DHT22;6670;51.53087800;7.23266500;2023-07-20T04:51:53;17.20;99.90
13211;DHT22;6670;51.53087800;7.23266500;2023-07-20T04:54:21;17.30;99.90
13211;DHT22;6670;51.53087800;7.23266500;2023-07-20T04:56:49;17.30;99.90
13211;DHT22;6670;51.53087800;7.23266500;2023-07-20T04:59:19;17.20;99.90
13211;DHT22;6670;51.53087800;7.23266500;2023-07-20T05:01:47;17.20;99.90
13211;DHT22;6670;51.53087800;7.23266500;2023-07-20T05:04:15;17.20;99.90
13211;DHT22;6670;51.53087800;7.23266500;2023-07-20T05:06:43;17.20;99.90
13211;DHT22;6670;51.53087800;7.23266500;2023-07-20T05:09:10;17.20;99.90
13211;DHT22;6670;51.53087800;7.23266500;2023-07-20T05:11:38;17.20;99.90
13211;DHT22;6670;51.53087800;7.23266500;2023-07-20T05:14:05;17.20;99.90
13211;DHT22;6670;51.53087800;7.23266500;2023-07-20T05:16:34;17.20;99.90
13211;DHT22;6670;51.53087800;7.23266500;2023-07-20T05:19:05;17.20;99.90
13211;DHT22;6670;51.53087800;7.23266500;2023-07-20T05:21:32;17.20;99.90
13211;DHT22;6670;51.53087800;7.23266500;2023-07-20T05:24:00;17.20;99.90
13211;DHT22;6670;51.53087800;7.23266500;2023-07-20T05:26:28;17.20;99.90
13211;DHT22;6670;51.53087800;7.23266500;2023-07-20T05:28:55;17.20;99.90
13211;DHT22;6670;51.53087800;7.23266500;2023-07-20T05:31:23;17.20;99.90
13211;DHT22;6670;51.53087800;7.23266500;2023-07-20T05:34:25;17.10;99.90
13211;DHT22;6670;51.53087800;7.23266500;2023-07-20T05:36:52;17.10;99.90
13211;DHT22;6670;51.53087800;7.23266500;2023-07-20T05:39:19;17.20;99.90
13211;DHT22;6670;51.53087800;7.23266500;2023-07-20T05:41:51;17.10;99.90
13211;DHT22;6670;51.53087800;7.23266500;2023-07-20T05:44:18;17.10;99.90
13211;DHT22;6670;51.53087800;7.23266500;2023-07-20T05:46:53;17.20;99.90
13211;DHT22;6670;51.53087800;7.23266500;2023-07-20T05:49:25;17.20;99.90
13211;DHT22;6670;51.53087800;7.23266500;2023-07-20T05:51:52;17.20;99.90
13211;DHT22;6670;51.53087800;7.23266500;2023-07-20T05:54:20;17.30;99.90
13211;DHT22;6670;51.53087800;7.23266500;2023-07-20T05:56:52;17.30;99.90
13211;DHT22;6670;51.53087800;7.23266500;2023-07-20T05:59:24;17.30;99.90
13211;DHT22;6670;51.53087800;7.23266500;2023-07-20T06:01:51;17.40;99.90
13211;DHT22;6670;51.53087800;7.23266500;2023-07-20T06:04:24;17.40;99.90
13211;DHT22;6670;51.53087800;7.23266500;2023-07-20T06:06:52;17.30;99.90
13211;DHT22;6670;51.53087800;7.23266500;2023-07-20T06:09:19;17.40;99.90
13211;DHT22;6670;51.53087800;7.23266500;2023-07-20T06:11:46;17.40;99.90
13211;DHT22;6670;51.53087800;7.23266500;2023-07-20T06:14:14;17.40;99.90
13211;DHT22;6670;51.53087800;7.23266500;2023-07-20T06:16:42;17.60;99.90
13211;DHT22;6670;51.53087800;7.23266500;2023-07-20T06:19:09;17.70;99.90
13211;DHT22;6670;51.53087800;7.23266500;2023-07-20T06:21:39;17.80;99.90
13211;DHT22;6670;51.53087800;7.23266500;2023-07-20T06:24:08;17.70;99.90
13211;DHT22;6670;51.53087800;7.23266500;2023-07-20T06:26:35;17.60;99.90
13211;DHT22;6670;51.53087800;7.23266500;2023-07-20T06:29:05;17.70;99.90
13211;DHT22;6670;51.53087800;7.23266500;2023-07-20T06:31:33;17.80;99.90
13211;DHT22;6670;51.53087800;7.23266500;2023-07-20T06:34:01;17.90;99.90
13211;DHT22;6670;51.53087800;7.23266500;2023-07-20T06:36:28;17.80;99.90
13211;DHT22;6670;51.53087800;7.23266500;2023-07-20T06:38:57;17.90;99.90
13211;DHT22;6670;51.53087800;7.23266500;2023-07-20T06:41:24;17.90;99.90
13211;DHT22;6670;51.53087800;7.23266500;2023-07-20T06:43:52;18.10;99.90
13211;DHT22;6670;51.53087800;7.23266500;2023-07-20T06:46:24;18.20;99.90
13211;DHT22;6670;51.53087800;7.23266500;2023-07-20T06:48:52;18.10;99.90
13211;DHT22;6670;51.53087800;7.23266500;2023-07-20T06:51:20;18.00;99.90
13211;DHT22;6670;51.53087800;7.23266500;2023-07-20T06:53:48;17.90;99.90
13211;DHT22;6670;51.53087800;7.23266500;2023-07-20T06:56:17;17.80;99.90
13211;DHT22;6670;51.53087800;7.23266500;2023-07-20T06:58:44;17.80;99.90
13211;DHT22;6670;51.53087800;7.23266500;2023-07-20T07:01:13;17.90;99.90
13211;DHT22;6670;51.53087800;7.23266500;2023-07-20T07:03:41;18.10;99.90
13211;DHT22;6670;51.53087800;7.23266500;2023-07-20T07:06:08;18.00;99.90
13211;DHT22;6670;51.53087800;7.23266500;2023-07-20T07:08:36;17.90;99.90
13211;DHT22;6670;51.53087800;7.23266500;2023-07-20T07:11:03;18.00;99.90
13211;DHT22;6670;51.53087800;7.23266500;2023-07-20T07:13:32;18.00;99.90
13211;DHT22;6670;51.53087800;7.23266500;2023-07-20T07:16:04;18.20;99.90
13211;DHT22;6670;51.53087800;7.23266500;2023-07-20T07:18:32;18.30;99.90
13211;DHT22;6670;51.53087800;7.23266500;2023-07-20T07:20:59;18.40;99.90
13211;DHT22;6670;51.53087800;7.23266500;2023-07-20T07:23:27;18.20;99.90
13211;DHT22;6670;51.53087800;7.23266500;2023-07-20T07:25:55;18.50;99.90
13211;DHT22;6670;51.53087800;7.23266500;2023-07-20T07:28:23;18.60;99.90
13211;DHT22;6670;51.53087800;7.23266500;2023-07-20T07:30:51;18.60;99.90
13211;DHT22;6670;51.53087800;7.23266500;2023-07-20T07:33:19;18.70;99.90
13211;DHT22;6670;51.53087800;7.23266500;2023-07-20T07:35:46;18.70;99.90
13211;DHT22;6670;51.53087800;7.23266500;2023-07-20T07:38:14;18.50;99.90
13211;DHT22;6670;51.53087800;7.23266500;2023-07-20T07:40:41;18.70;99.90
13211;DHT22;6670;51.53087800;7.23266500;2023-07-20T07:43:13;18.80;99.90
13211;DHT22;6670;51.53087800;7.23266500;2023-07-20T07:45:41;18.40;99.90
13211;DHT22;6670;51.53087800;7.23266500;2023-07-20T07:48:10;18.10;99.90
13211;DHT22;6670;51.53087800;7.23266500;2023-07-20T07:50:38;18.30;99.90
13211;DHT22;6670;51.53087800;7.23266500;2023-07-20T07:53:07;18.30;99.90
13211;DHT22;6670;51.53087800;7.23266500;2023-07-20T07:55:35;18.50;99.90
13211;DHT22;6670;51.53087800;7.23266500;2023-07-20T07:58:03;18.70;99.90
13211;DHT22;6670;51.53087800;7.23266500;2023-07-20T08:00:30;18.80;99.90
13211;DHT22;6670;51.53087800;7.23266500;2023-07-20T08:02:57;18.80;99.90
13211;DHT22;6670;51.53087800;7.23266500;2023-07-20T08:05:26;18.90;99.90
13211;DHT22;6670;51.53087800;7.23266500;2023-07-20T08:07:54;18.60;99.90
13211;DHT22;6670;51.53087800;7.23266500;2023-07-20T08:10:21;18.60;99.90
13211;DHT22;6670;51.53087800;7.23266500;2023-07-20T08:12:49;18.60;99.90
13211;DHT22;6670;51.53087800;7.23266500;2023-07-20T08:15:17;18.50;99.90
13211;DHT22;6670;51.53087800;7.23266500;2023-07-20T08:17:44;18.60;99.90
13211;DHT22;6670;51.53087800;7.23266500;2023-07-20T08:20:18;18.40;99.90
13211;DHT22;6670;51.53087800;7.23266500;2023-07-20T08:22:54;18.30;99.90
13211;DHT22;6670;51.53087800;7.23266500;2023-07-20T08:25:26;18.30;99.90
13211;DHT22;6670;51.53087800;7.23266500;2023-07-20T08:28:05;18.30;99.90
13211;DHT22;6670;51.53087800;7.23266500;2023-07-20T08:30:40;18.20;99.90
13211;DHT22;6670;51.53087800;7.23266500;2023-07-20T08:33:08;18.40;99.90
13211;DHT22;6670;51.53087800;7.23266500;2023-07-20T08:35:54;18.60;99.90
13211;DHT22;6670;51.53087800;7.23266500;2023-07-20T08:38:24;18.70;99.90
13211;DHT22;6670;51.53087800;7.23266500;2023-07-20T08:40:53;18.90;99.90
13211;DHT22;6670;51.53087800;7.23266500;2023-07-20T08:43:23;18.90;99.90
13211;DHT22;6670;51.53087800;7.23266500;2023-07-20T08:45:58;19.00;99.90
13211;DHT22;6670;51.53087800;7.23266500;2023-07-20T08:48:35;19.60;99.90
13211;DHT22;6670;51.53087800;7.23266500;2023-07-20T08:51:07;20.10;99.90
13211;DHT22;6670;51.53087800;7.23266500;2023-07-20T08:53:51;20.00;99.90
13211;DHT22;6670;51.53087800;7.23266500;2023-07-20T08:56:21;20.30;99.90
13211;DHT22;6670;51.53087800;7.23266500;2023-07-20T08:59:05;20.00;99.90
13211;DHT22;6670;51.53087800;7.23266500;2023-07-20T09:01:33;20.20;99.90
13211;DHT22;6670;51.53087800;7.23266500;2023-07-20T09:04:03;20.40;99.90
13211;DHT22;6670;51.53087800;7.23266500;2023-07-20T09:06:33;20.30;99.90
13211;DHT22;6670;51.53087800;7.23266500;2023-07-20T09:09:05;20.50;99.90
13211;DHT22;6670;51.53087800;7.23266500;2023-07-20T09:11:33;20.90;99.90
13211;DHT22;6670;51.53087800;7.23266500;2023-07-20T09:14:06;20.90;99.90
13211;DHT22;6670;51.53087800;7.23266500;2023-07-20T09:16:47;20.90;99.90
13211;DHT22;6670;51.53087800;7.23266500;2023-07-20T09:19:15;20.20;99.90
13211;DHT22;6670;51.53087800;7.23266500;2023-07-20T09:21:44;20.20;99.90
13211;DHT22;6670;51.53087800;7.23266500;2023-07-20T09:58:58;20.30;99.90
13211;DHT22;6670;51.53087800;7.23266500;2023-07-20T10:02:27;19.90;99.90
13211;DHT22;6670;51.53087800;7.23266500;2023-07-20T10:05:02;19.90;99.90
13211;DHT22;6670;51.53087800;7.23266500;2023-07-20T10:07:30;20.30;99.90
13211;DHT22;6670;51.53087800;7.23266500;2023-07-20T10:10:01;20.30;99.90
13211;DHT22;6670;51.53087800;7.23266500;2023-07-20T10:12:31;20.60;99.90
13211;DHT22;6670;51.53087800;7.23266500;2023-07-20T10:15:09;20.70;99.90
13211;DHT22;6670;51.53087800;7.23266500;2023-07-20T10:17:42;20.50;99.90
13211;DHT22;6670;51.53087800;7.23266500;2023-07-20T10:20:17;20.40;99.90
13211;DHT22;6670;51.53087800;7.23266500;2023-07-20T10:22:48;20.30;99.90
13211;DHT22;6670;51.53087800;7.23266500;2023-07-20T10:25:16;20.30;99.90
13211;DHT22;6670;51.53087800;7.23266500;2023-07-20T10:27:47;20.60;99.90
13211;DHT22;6670;51.53087800;7.23266500;2023-07-20T10:30:17;20.70;99.90
13211;DHT22;6670;51.53087800;7.23266500;2023-07-20T10:32:45;20.80;99.90
13211;DHT22;6670;51.53087800;7.23266500;2023-07-20T10:35:14;20.60;99.90
13211;DHT22;6670;51.53087800;7.23266500;2023-07-20T10:37:49;20.60;99.90
13211;DHT22;6670;51.53087800;7.23266500;2023-07-20T10:40:28;20.60;99.90
13211;DHT22;6670;51.53087800;7.23266500;2023-07-20T10:42:57;20.80;99.00
13211;DHT22;6670;51.53087800;7.23266500;2023-07-20T10:45:52;20.60;96.70
13211;DHT22;6670;51.53087800;7.23266500;2023-07-20T10:48:21;20.60;96.20
13211;DHT22;6670;51.53087800;7.23266500;2023-07-20T10:51:08;20.80;97.80
13211;DHT22;6670;51.53087800;7.23266500;2023-07-20T10:53:41;21.20;99.90
13211;DHT22;6670;51.53087800;7.23266500;2023-07-20T10:56:19;21.50;99.10
13211;DHT22;6670;51.53087800;7.23266500;2023-07-20T10:58:47;21.70;98.70
13211;DHT22;6670;51.53087800;7.23266500;2023-07-20T11:01:17;21.60;95.80
13211;DHT22;6670;51.53087800;7.23266500;2023-07-20T11:03:49;21.20;95.20
13211;DHT22;6670;51.53087800;7.23266500;2023-07-20T11:06:32;21.50;96.50
13211;DHT22;6670;51.53087800;7.23266500;2023-07-20T11:09:05;21.80;94.20
13211;DHT22;6670;51.53087800;7.23266500;2023-07-20T11:11:35;21.40;91.00
13211;DHT22;6670;51.53087800;7.23266500;2023-07-20T11:14:04;21.40;91.70
13211;DHT22;6670;51.53087800;7.23266500;2023-07-20T11:16:46;21.80;92.30
13211;DHT22;6670;51.53087800;7.23266500;2023-07-20T11:19:22;21.70;93.80
13211;DHT22;6670;51.53087800;7.23266500;2023-07-20T11:21:52;21.60;93.20
13211;DHT22;6670;51.53087800;7.23266500;2023-07-20T11:24:23;21.40;94.90
13211;DHT22;6670;51.53087800;7.23266500;2023-07-20T11:26:57;21.60;95.00
13211;DHT22;6670;51.53087800;7.23266500;2023-07-20T11:29:32;21.90;94.50
13211;DHT22;6670;51.53087800;7.23266500;2023-07-20T11:32:03;22.10;94.70
13211;DHT22;6670;51.53087800;7.23266500;2023-07-20T11:34:32;22.10;93.70
13211;DHT22;6670;51.53087800;7.23266500;2023-07-20T11:37:00;22.20;92.80
13211;DHT22;6670;51.53087800;7.23266500;2023-07-20T11:39:29;22.10;92.50
13211;DHT22;6670;51.53087800;7.23266500;2023-07-20T11:41:57;22.40;91.30
13211;DHT22;6670;51.53087800;7.23266500;2023-07-20T11:44:39;22.50;91.30
13211;DHT22;6670;51.53087800;7.23266500;2023-07-20T11:47:30;22.90;92.50
13211;DHT22;6670;51.53087800;7.23266500;2023-07-20T11:50:03;23.10;92.50
13211;DHT22;6670;51.53087800;7.23266500;2023-07-20T11:52:31;23.10;91.20
13211;DHT22;6670;51.53087800;7.23266500;2023-07-20T11:58:47;22.90;90.10
13211;DHT22;6670;51.53087800;7.23266500;2023-07-20T12:01:14;22.30;90.10
13211;DHT22;6670;51.53087800;7.23266500;2023-07-20T12:03:44;22.30;90.00
13211;DHT22;6670;51.53087800;7.23266500;2023-07-20T12:06:12;22.10;91.30
13211;DHT22;6670;51.53087800;7.23266500;2023-07-20T12:08:42;21.90;91.80
13211;DHT22;6670;51.53087800;7.23266500;2023-07-20T12:11:43;21.70;92.40
13211;DHT22;6670;51.53087800;7.23266500;2023-07-20T12:14:11;21.80;93.60
13211;DHT22;6670;51.53087800;7.23266500;2023-07-20T12:16:39;22.30;91.60
13211;DHT22;6670;51.53087800;7.23266500;2023-07-20T12:19:09;22.30;90.80
13211;DHT22;6670;51.53087800;7.23266500;2023-07-20T12:21:38;22.90;91.00
13211;DHT22;6670;51.53087800;7.23266500;2023-07-20T12:24:06;23.30;89.80
13211;DHT22;6670;51.53087800;7.23266500;2023-07-20T12:26:35;23.90;90.40
13211;DHT22;6670;51.53087800;7.23266500;2023-07-20T12:29:03;24.20;86.60
13211;DHT22;6670;51.53087800;7.23266500;2023-07-20T12:31:36;24.00;86.20
13211;DHT22;6670;51.53087800;7.23266500;2023-07-20T12:34:03;23.50;86.30
13211;DHT22;6670;51.53087800;7.23266500;2023-07-20T12:36:33;23.10;84.00
13211;DHT22;6670;51.53087800;7.23266500;2023-07-20T12:39:00;23.40;83.10
13211;DHT22;6670;51.53087800;7.23266500;2023-07-20T12:41:28;23.40;79.80
13211;DHT22;6670;51.53087800;7.23266500;2023-07-20T12:43:55;23.20;81.00
13211;DHT22;6670;51.53087800;7.23266500;2023-07-20T12:46:24;23.20;81.90
13211;DHT22;6670;51.53087800;7.23266500;2023-07-20T12:48:51;23.70;80.30
13211;DHT22;6670;51.53087800;7.23266500;2023-07-20T12:51:19;23.90;80.60
13211;DHT22;6670;51.53087800;7.23266500;2023-07-20T12:53:48;23.90;80.00
13211;DHT22;6670;51.53087800;7.23266500;2023-07-20T12:56:32;23.70;80.10
13211;DHT22;6670;51.53087800;7.23266500;2023-07-20T12:59:00;23.90;81.90
13211;DHT22;6670;51.53087800;7.23266500;2023-07-20T13:01:28;23.60;81.10
13211;DHT22;6670;51.53087800;7.23266500;2023-07-20T13:03:56;23.60;81.80
13211;DHT22;6670;51.53087800;7.23266500;2023-07-20T13:06:24;23.40;79.70
13211;DHT22;6670;51.53087800;7.23266500;2023-07-20T13:08:53;22.80;83.00
13211;DHT22;6670;51.53087800;7.23266500;2023-07-20T13:11:22;22.50;82.70
13211;DHT22;6670;51.53087800;7.23266500;2023-07-20T13:13:50;22.40;83.20
13211;DHT22;6670;51.53087800;7.23266500;2023-07-20T13:16:17;22.50;82.50
13211;DHT22;6670;51.53087800;7.23266500;2023-07-20T13:18:44;22.90;83.90
13211;DHT22;6670;51.53087800;7.23266500;2023-07-20T13:21:12;22.80;82.70
13211;DHT22;6670;51.53087800;7.23266500;2023-07-20T13:23:52;22.90;81.90
13211;DHT22;6670;51.53087800;7.23266500;2023-07-20T13:26:21;23.00;86.00
13211;DHT22;6670;51.53087800;7.23266500;2023-07-20T13:28:56;22.80;83.30
13211;DHT22;6670;51.53087800;7.23266500;2023-07-20T13:31:28;22.50;84.50
13211;DHT22;6670;51.53087800;7.23266500;2023-07-20T13:33:58;22.60;83.20
13211;DHT22;6670;51.53087800;7.23266500;2023-07-20T13:36:25;22.60;83.50
13211;DHT22;6670;51.53087800;7.23266500;2023-07-20T13:38:54;22.90;83.90
13211;DHT22;6670;51.53087800;7.23266500;2023-07-20T13:41:21;23.00;82.60
13211;DHT22;6670;51.53087800;7.23266500;2023-07-20T13:43:49;23.30;83.80
13211;DHT22;6670;51.53087800;7.23266500;2023-07-20T13:46:17;23.30;83.40
13211;DHT22;6670;51.53087800;7.23266500;2023-07-20T13:48:44;23.70;84.70
13211;DHT22;6670;51.53087800;7.23266500;2023-07-20T13:51:12;23.60;82.80
13211;DHT22;6670;51.53087800;7.23266500;2023-07-20T13:53:39;23.30;82.60
13211;DHT22;6670;51.53087800;7.23266500;2023-07-20T13:56:09;22.80;83.10
13211;DHT22;6670;51.53087800;7.23266500;2023-07-20T13:58:37;22.90;84.70
13211;DHT22;6670;51.53087800;7.23266500;2023-07-20T14:01:12;23.00;85.20
13211;DHT22;6670;51.53087800;7.23266500;2023-07-20T14:04:04;22.80;84.70
13211;DHT22;6670;51.53087800;7.23266500;2023-07-20T14:06:32;22.50;85.10
13211;DHT22;6670;51.53087800;7.23266500;2023-07-20T14:09:00;22.40;85.20
13211;DHT22;6670;51.53087800;7.23266500;2023-07-20T14:11:28;22.50;85.80
13211;DHT22;6670;51.53087800;7.23266500;2023-07-20T14:13:56;22.60;85.70
13211;DHT22;6670;51.53087800;7.23266500;2023-07-20T14:16:24;22.80;84.00
13211;DHT22;6670;51.53087800;7.23266500;2023-07-20T14:18:52;22.70;83.10
13211;DHT22;6670;51.53087800;7.23266500;2023-07-20T14:21:20;22.80;82.20
13211;DHT22;6670;51.53087800;7.23266500;2023-07-20T14:23:50;23.10;80.90
13211;DHT22;6670;51.53087800;7.23266500;2023-07-20T14:26:18;23.60;80.00
13211;DHT22;6670;51.53087800;7.23266500;2023-07-20T14:28:46;23.90;79.40